createdAt,value
2023-01-08T00:02:01.501Z,99882.69
2023-01-08T00:07:06.281Z,99858.16
2023-01-08T00:12:09.979Z,99879.25
2023-01-08T00:17:16.386Z,99874.94
2023-01-08T00:22:21.117Z,99869.72
2023-01-08T00:27:25.863Z,99870.56
2023-01-08T00:32:30.791Z,99866.28
2023-01-08T00:37:40.591Z,99866.28
2023-01-08T00:42:44.759Z,99856.84
2023-01-08T00:47:48.474Z,99838.13
2023-01-08T00:52:54.839Z,99860.84
2023-01-08T00:57:59.419Z,99847.13
2023-01-08T01:03:04.082Z,99846.19
2023-01-08T01:08:09.256Z,99841.88
2023-01-08T01:13:13.125Z,99850.34
2023-01-08T01:18:18.556Z,99838.25
2023-01-08T01:23:24.122Z,99834.78
2023-01-08T01:28:32.177Z,99831.25
2023-01-08T01:33:38.565Z,99816.69
2023-01-08T01:38:49.379Z,99822.66
2023-01-08T01:43:54.447Z,99826.06
2023-01-08T01:49:04.813Z,99814.03
2023-01-08T01:54:13.692Z,99831.09
2023-01-08T01:59:19.593Z,99805.59
2023-01-08T02:04:25.845Z,99814.78
2023-01-08T02:09:44.525Z,99802.03
2023-01-08T02:14:51.046Z,99814.91
2023-01-08T02:20:03.851Z,99820.88
2023-01-08T02:25:33.439Z,99803.75
2023-01-08T02:30:37.515Z,99813.13
2023-01-08T02:36:13.390Z,99807.16
2023-01-08T02:41:24.457Z,99790.28
2023-01-08T02:46:35.167Z,99799.41
2023-01-08T02:51:52.441Z,99795.09
2023-01-08T02:57:07.431Z,99778.88
2023-01-08T03:02:15.531Z,99780.53
2023-01-08T03:07:24.088Z,99780.53
2023-01-08T03:12:59.041Z,99768.53
2023-01-08T03:18:11.748Z,99773.63
2023-01-08T03:23:24.199Z,99767.59
2023-01-08T03:28:35.500Z,99750.50
2023-01-08T03:33:39.987Z,99758.03
2023-01-08T03:38:49.610Z,99749.44
2023-01-08T03:43:59.622Z,99743.34
2023-01-08T03:49:07.316Z,99744.94
2023-01-08T03:54:19.416Z,99745.72
2023-01-08T03:59:23.412Z,99737.06
2023-01-08T04:04:29.351Z,99738.72
2023-01-08T04:09:33.262Z,99717.53
2023-01-08T04:14:39.603Z,99738.59
2023-01-08T04:19:45.680Z,99732.56
2023-01-08T04:24:50.371Z,99723.88
2023-01-08T04:29:56.516Z,99712.63
2023-01-08T04:35:00.469Z,99720.13
2023-01-08T04:40:06.791Z,99720.00
2023-01-08T04:45:11.049Z,99678.78
2023-01-08T04:50:15.712Z,99710.19
2023-01-08T04:55:21.596Z,99708.25
2023-01-08T05:00:27.711Z,99703.75
2023-01-08T05:05:32.878Z,99698.28
2023-01-08T05:10:41.879Z,99699.59
2023-01-08T05:15:49.448Z,99689.16
2023-01-08T05:20:54.411Z,99687.34
2023-01-08T05:26:03.603Z,99692.16
2023-01-08T05:31:07.639Z,99691.09
2023-01-08T05:36:13.523Z,99696.88
2023-01-08T05:41:20.412Z,99692.34
2023-01-08T05:46:26.716Z,99690.41
2023-01-08T05:51:32.379Z,99687.50
2023-01-08T05:56:38.447Z,99676.91
2023-01-08T06:01:43.209Z,99674.72
2023-01-08T06:06:50.173Z,99667.47
2023-01-08T06:11:55.617Z,99645.00
2023-01-08T06:16:59.387Z,99650.69
2023-01-08T06:22:07.245Z,99647.28
2023-01-08T06:27:15.580Z,99644.56
2023-01-08T06:32:20.577Z,99630.72
2023-01-08T06:37:25.709Z,99638.38
2023-01-08T06:42:32.689Z,99639.81
2023-01-08T06:47:37.401Z,99630.19
2023-01-08T06:52:41.312Z,99613.63
2023-01-08T06:57:46.948Z,99589.47
2023-01-08T07:02:52.161Z,99583.19
2023-01-08T07:07:57.872Z,99594.03
2023-01-08T07:13:01.733Z,99585.03
2023-01-08T07:18:06.946Z,99566.69
2023-01-08T07:23:17.167Z,99567.69
2023-01-08T07:28:22.295Z,99562.69
2023-01-08T07:33:27.933Z,99552.31
2023-01-08T07:38:34.845Z,99527.56
2023-01-08T07:43:40.098Z,99544.00
2023-01-08T07:48:44.810Z,99519.91
2023-01-08T07:53:48.640Z,99515.53
2023-01-08T07:58:54.630Z,99503.47
2023-01-08T08:03:58.386Z,99507.47
2023-01-08T08:09:05.409Z,99492.19
2023-01-08T08:14:12.229Z,99498.09
2023-01-08T08:19:18.671Z,99498.09
2023-01-08T08:24:28.549Z,99482.22
2023-01-08T08:29:35.027Z,99485.63
2023-01-08T08:34:46.528Z,99477.22
2023-01-08T08:39:50.338Z,99483.28
2023-01-08T08:44:59.723Z,99469.91
2023-01-08T08:50:07.469Z,99471.25
2023-01-08T08:55:17.850Z,99461.88
2023-01-08T09:00:30.295Z,99460.44
2023-01-08T09:05:37.445Z,99439.16
2023-01-08T09:10:42.919Z,99436.75
2023-01-08T09:15:47.730Z,99400.38
2023-01-08T09:20:53.934Z,99396.72
2023-01-08T09:26:04.525Z,99393.06
2023-01-08T09:31:09.804Z,99389.59
2023-01-08T09:36:16.725Z,99392.25
2023-01-08T09:41:33.485Z,99393.81
2023-01-08T09:46:38.712Z,99371.50
2023-01-08T09:51:42.636Z,99382.53
2023-01-08T09:56:48.206Z,99341.34
2023-01-08T10:01:55.249Z,99326.75
2023-01-08T10:07:22.693Z,99308.59
2023-01-08T10:12:35.625Z,99293.06
2023-01-08T10:17:49.450Z,99270.38
2023-01-08T10:23:00.260Z,99286.00
2023-01-08T10:28:07.700Z,99255.03
2023-01-08T10:33:33.746Z,99252.38
2023-01-08T10:38:51.093Z,99229.22
2023-01-08T10:44:03.899Z,99215.59
2023-01-08T10:49:35.227Z,99190.97
2023-01-08T10:54:41.316Z,99179.09
2023-01-08T10:59:46.731Z,99176.56
2023-01-08T11:04:54.036Z,99155.25
2023-01-08T11:09:59.212Z,99145.78
2023-01-08T11:15:35.181Z,99136.31
2023-01-08T11:20:42.637Z,99131.16
2023-01-08T11:26:12.049Z,99112.31
2023-01-08T11:31:41.581Z,99107.28
2023-01-08T11:37:25.011Z,99089.06
2023-01-08T11:42:56.675Z,99062.47
2023-01-08T11:48:14.491Z,99052.16
2023-01-08T11:53:46.277Z,99028.19
2023-01-08T11:58:59.211Z,99022.03
2023-01-08T12:04:46.148Z,98999.69
2023-01-08T12:10:13.071Z,98988.38
2023-01-08T12:15:51.723Z,98996.66
2023-01-08T12:21:42.281Z,98975.88
2023-01-08T12:27:04.145Z,98955.94
2023-01-08T12:32:25.242Z,98941.31
2023-01-08T12:37:52.085Z,98922.81
2023-01-08T12:43:01.667Z,98894.59
2023-01-08T12:48:14.604Z,98899.34
2023-01-08T12:53:25.799Z,98889.00
2023-01-08T12:58:58.851Z,98873.94
2023-01-08T13:04:07.446Z,98867.38
2023-01-08T13:09:25.419Z,98851.31
2023-01-08T13:14:44.623Z,98838.75
2023-01-08T13:20:01.705Z,98834.03
2023-01-08T13:25:18.680Z,98819.63
2023-01-08T13:30:47.490Z,98816.25
2023-01-08T13:35:53.329Z,98805.22
2023-01-08T13:40:58.550Z,98796.75
2023-01-08T13:46:03.205Z,98784.97
2023-01-08T13:51:30.725Z,98767.13
2023-01-08T13:56:42.637Z,98781.06
2023-01-08T14:01:56.637Z,98761.97
2023-01-08T14:07:17.181Z,98775.16
2023-01-08T14:12:24.071Z,98757.69
2023-01-08T14:17:34.628Z,98734.84
2023-01-08T14:22:43.021Z,98740.63
2023-01-08T14:27:58.953Z,98726.06
2023-01-08T14:33:05.672Z,98735.97
2023-01-08T14:38:16.056Z,98712.00
2023-01-08T14:43:22.304Z,98708.16
2023-01-08T14:48:43.017Z,98707.00
2023-01-08T14:53:56.219Z,98708.31
2023-01-08T14:59:08.646Z,98699.66
2023-01-08T15:04:19.198Z,98697.88
2023-01-08T15:09:25.437Z,98698.38
2023-01-08T15:14:36.119Z,98690.56
2023-01-08T15:19:49.369Z,98703.00
2023-01-08T15:25:04.516Z,98699.38
2023-01-08T15:30:26.491Z,98689.16
2023-01-08T15:35:32.538Z,98706.31
2023-01-08T15:40:38.023Z,98700.22
2023-01-08T15:45:46.674Z,98692.22
2023-01-08T15:50:50.550Z,98700.34
2023-01-08T15:55:58.842Z,98695.91
2023-01-08T16:01:07.629Z,98698.84
2023-01-08T16:06:12.286Z,98709.78
2023-01-08T16:11:20.848Z,98718.84
2023-01-08T16:16:29.399Z,98710.25
2023-01-08T16:21:34.161Z,98716.13
2023-01-08T16:26:40.214Z,98702.97
2023-01-08T16:31:50.061Z,98719.19
2023-01-08T16:36:54.660Z,98701.00
2023-01-08T16:42:03.837Z,98706.53
2023-01-08T16:47:12.874Z,98723.59
2023-01-08T16:52:20.893Z,98727.13
2023-01-08T16:57:26.820Z,98723.03
2023-01-08T17:02:30.563Z,98723.50
2023-01-08T17:07:37.557Z,98731.97
2023-01-08T17:12:42.821Z,98735.50
2023-01-08T17:17:48.288Z,98735.00
2023-01-08T17:22:54.376Z,98727.97
2023-01-08T17:27:59.061Z,98725.03
2023-01-08T17:33:03.587Z,98732.56
2023-01-08T17:38:08.531Z,98723.63
2023-01-08T17:43:13.768Z,98726.09
2023-01-08T17:48:19.525Z,98721.75
2023-01-08T17:53:23.376Z,98713.88
2023-01-08T17:58:27.305Z,98691.91
2023-01-08T18:03:31.121Z,98687.09
2023-01-08T18:08:37.429Z,98682.97
2023-01-08T18:13:41.263Z,98695.91
2023-01-08T18:18:49.146Z,98690.16
2023-01-08T18:23:57.208Z,98672.53
2023-01-08T18:29:01.022Z,98687.44
2023-01-08T18:34:09.376Z,98687.22
2023-01-08T18:39:13.799Z,98684.03
2023-01-08T18:44:17.801Z,98653.59
2023-01-08T18:49:24.052Z,98657.25
2023-01-08T18:54:30.724Z,98650.78
2023-01-08T18:59:39.619Z,98659.81
2023-01-08T19:04:44.470Z,98653.00
2023-01-08T19:09:52.209Z,98648.31
2023-01-08T19:14:58.271Z,98639.16
2023-01-08T19:20:02.271Z,98642.44
2023-01-08T19:25:08.030Z,98651.25
2023-01-08T19:30:13.165Z,98635.63
2023-01-08T19:35:17.980Z,98631.28
2023-01-08T19:40:23.465Z,98633.03
2023-01-08T19:45:27.505Z,98615.88
2023-01-08T19:50:32.622Z,98630.69
2023-01-08T19:55:38.915Z,98631.50
2023-01-08T20:00:42.681Z,98624.13
2023-01-08T20:05:47.737Z,98609.19
2023-01-08T20:10:52.156Z,98582.19
2023-01-08T20:15:58.794Z,98599.56
2023-01-08T20:21:10.980Z,98590.50
2023-01-08T20:26:21.484Z,98594.16
2023-01-08T20:31:30.469Z,98594.97
2023-01-08T20:36:35.673Z,98607.31
2023-01-08T20:41:39.575Z,98583.13
2023-01-08T20:46:48.082Z,98586.28
2023-01-08T20:51:58.581Z,98579.00
2023-01-08T20:57:07.628Z,98588.03
2023-01-08T21:02:13.836Z,98583.09
2023-01-08T21:07:17.804Z,98565.59
2023-01-08T21:12:21.459Z,98573.81
2023-01-08T21:17:25.440Z,98558.88
2023-01-08T21:22:30.332Z,98570.97
2023-01-08T21:27:35.407Z,98543.84
2023-01-08T21:32:39.327Z,98570.16
2023-01-08T21:37:43.130Z,98578.38
2023-01-08T21:43:06.260Z,98580.84
2023-01-08T21:48:13.466Z,98573.41
2023-01-08T21:53:34.192Z,98587.78
2023-01-08T21:58:40.071Z,98571.56
2023-01-08T22:03:43.942Z,98567.09
2023-01-08T22:08:55.097Z,98551.69
2023-01-08T22:14:01.836Z,98551.13
2023-01-08T22:19:06.555Z,98535.84
2023-01-08T22:24:11.701Z,98540.19
2023-01-08T22:29:16.322Z,98484.06
2023-01-08T22:34:20.765Z,98518.13
2023-01-08T22:39:26.784Z,98517.41
2023-01-08T22:44:30.643Z,98521.06
2023-01-08T22:49:36.116Z,98524.59
2023-01-08T22:54:40.137Z,98507.78
2023-01-08T22:59:44.056Z,98501.91
2023-01-08T23:04:53.668Z,98494.63
2023-01-08T23:09:57.526Z,98507.81
2023-01-08T23:15:02.779Z,98510.28
2023-01-08T23:20:10.078Z,98506.53
2023-01-08T23:25:14.903Z,98505.09
2023-01-08T23:30:19.649Z,98507.34
2023-01-08T23:35:23.395Z,98526.25
2023-01-08T23:40:29.844Z,98528.50
2023-01-08T23:45:37.517Z,98550.56
2023-01-08T23:50:45.352Z,98553.38
2023-01-08T23:55:49.255Z,98568.06
